sensor_id;sensor_type;location;lat;lon;timestamp;temperature;humidity
42979;DHT22;28616;44.746;19.678;2023-01-05T00:01:02;4.20;99.90
42979;DHT22;28616;44.746;19.678;2023-01-05T00:03:29;4.20;99.90
42979;DHT22;28616;44.746;19.678;2023-01-05T00:06:19;4.20;99.90
42979;DHT22;28616;44.746;19.678;2023-01-05T00:08:44;4.20;99.90
42979;DHT22;28616;44.746;19.678;2023-01-05T00:11:12;4.10;99.90
42979;DHT22;28616;44.746;19.678;2023-01-05T00:13:57;4.10;99.90
42979;DHT22;28616;44.746;19.678;2023-01-05T00:16:41;4.10;99.90
42979;DHT22;28616;44.746;19.678;2023-01-05T00:19:25;4.00;99.90
42979;DHT22;28616;44.746;19.678;2023-01-05T00:22:23;4.00;99.90
42979;DHT22;28616;44.746;19.678;2023-01-05T00:27:21;3.90;99.90
42979;DHT22;28616;44.746;19.678;2023-01-05T00:29:47;3.90;99.90
42979;DHT22;28616;44.746;19.678;2023-01-05T00:32:13;3.90;99.90
42979;DHT22;28616;44.746;19.678;2023-01-05T00:34:38;3.90;99.90
42979;DHT22;28616;44.746;19.678;2023-01-05T00:37:04;3.90;99.90
42979;DHT22;28616;44.746;19.678;2023-01-05T00:39:30;3.80;99.90
42979;DHT22;28616;44.746;19.678;2023-01-05T00:41:55;3.80;99.90
42979;DHT22;28616;44.746;19.678;2023-01-05T00:44:21;3.80;99.90
42979;DHT22;28616;44.746;19.678;2023-01-05T00:46:47;3.80;99.90
42979;DHT22;28616;44.746;19.678;2023-01-05T00:49:12;3.70;99.90
42979;DHT22;28616;44.746;19.678;2023-01-05T00:51:38;3.70;99.90
42979;DHT22;28616;44.746;19.678;2023-01-05T00:54:04;3.60;99.90
42979;DHT22;28616;44.746;19.678;2023-01-05T00:56:29;3.50;99.90
42979;DHT22;28616;44.746;19.678;2023-01-05T00:59:01;3.50;99.90
42979;DHT22;28616;44.746;19.678;2023-01-05T01:01:27;3.50;99.90
42979;DHT22;28616;44.746;19.678;2023-01-05T01:03:55;3.50;99.90
42979;DHT22;28616;44.746;19.678;2023-01-05T01:06:22;3.50;99.90
42979;DHT22;28616;44.746;19.678;2023-01-05T01:08:48;3.50;99.90
42979;DHT22;28616;44.746;19.678;2023-01-05T01:11:14;3.50;99.90
42979;DHT22;28616;44.746;19.678;2023-01-05T01:13:42;3.40;99.90
42979;DHT22;28616;44.746;19.678;2023-01-05T01:16:10;3.40;99.90
42979;DHT22;28616;44.746;19.678;2023-01-05T01:18:36;3.40;99.90
42979;DHT22;28616;44.746;19.678;2023-01-05T01:21:01;3.40;99.90
42979;DHT22;28616;44.746;19.678;2023-01-05T01:23:27;3.40;99.90
42979;DHT22;28616;44.746;19.678;2023-01-05T01:25:53;3.40;99.90
42979;DHT22;28616;44.746;19.678;2023-01-05T01:28:18;3.40;99.90
42979;DHT22;28616;44.746;19.678;2023-01-05T01:30:44;3.30;99.90
42979;DHT22;28616;44.746;19.678;2023-01-05T01:33:10;3.30;99.90
42979;DHT22;28616;44.746;19.678;2023-01-05T01:35:37;3.30;99.90
42979;DHT22;28616;44.746;19.678;2023-01-05T01:38:03;3.30;99.90
42979;DHT22;28616;44.746;19.678;2023-01-05T01:40:29;3.30;99.90
42979;DHT22;28616;44.746;19.678;2023-01-05T01:42:56;3.30;99.90
42979;DHT22;28616;44.746;19.678;2023-01-05T01:45:23;3.30;99.90
42979;DHT22;28616;44.746;19.678;2023-01-05T01:47:56;3.30;99.90
42979;DHT22;28616;44.746;19.678;2023-01-05T01:50:35;3.30;99.90
42979;DHT22;28616;44.746;19.678;2023-01-05T01:53:12;3.30;99.90
42979;DHT22;28616;44.746;19.678;2023-01-05T01:55:39;3.20;99.90
42979;DHT22;28616;44.746;19.678;2023-01-05T01:58:07;3.20;99.90
42979;DHT22;28616;44.746;19.678;2023-01-05T02:00:39;3.20;99.90
42979;DHT22;28616;44.746;19.678;2023-01-05T02:03:05;3.20;99.90
42979;DHT22;28616;44.746;19.678;2023-01-05T02:05:33;3.20;99.90
42979;DHT22;28616;44.746;19.678;2023-01-05T02:07:59;3.10;99.90
42979;DHT22;28616;44.746;19.678;2023-01-05T02:13:21;3.10;99.90
42979;DHT22;28616;44.746;19.678;2023-01-05T02:16:05;3.10;99.90
42979;DHT22;28616;44.746;19.678;2023-01-05T02:18:42;3.10;99.90
42979;DHT22;28616;44.746;19.678;2023-01-05T02:21:32;3.00;99.90
42979;DHT22;28616;44.746;19.678;2023-01-05T02:26:43;3.00;99.90
42979;DHT22;28616;44.746;19.678;2023-01-05T02:34:43;2.80;99.90
42979;DHT22;28616;44.746;19.678;2023-01-05T02:40:09;2.80;99.90
42979;DHT22;28616;44.746;19.678;2023-01-05T02:42:39;2.80;99.90
42979;DHT22;28616;44.746;19.678;2023-01-05T02:45:07;2.80;99.90
42979;DHT22;28616;44.746;19.678;2023-01-05T02:47:39;2.80;99.90
42979;DHT22;28616;44.746;19.678;2023-01-05T02:55:28;2.70;99.90
42979;DHT22;28616;44.746;19.678;2023-01-05T02:58:01;2.70;99.90
42979;DHT22;28616;44.746;19.678;2023-01-05T03:03:01;2.70;99.90
42979;DHT22;28616;44.746;19.678;2023-01-05T03:05:32;2.60;99.90
42979;DHT22;28616;44.746;19.678;2023-01-05T03:08:00;2.70;99.90
42979;DHT22;28616;44.746;19.678;2023-01-05T03:10:56;2.70;99.90
42979;DHT22;28616;44.746;19.678;2023-01-05T03:13:45;2.60;99.90
42979;DHT22;28616;44.746;19.678;2023-01-05T03:16:17;2.60;99.90
42979;DHT22;28616;44.746;19.678;2023-01-05T03:18:45;2.60;99.90
42979;DHT22;28616;44.746;19.678;2023-01-05T03:21:30;2.60;99.90
42979;DHT22;28616;44.746;19.678;2023-01-05T03:24:14;2.50;99.90
42979;DHT22;28616;44.746;19.678;2023-01-05T03:26:59;2.50;99.90
42979;DHT22;28616;44.746;19.678;2023-01-05T03:29:44;2.50;99.90
42979;DHT22;28616;44.746;19.678;2023-01-05T03:32:29;2.50;99.90
42979;DHT22;28616;44.746;19.678;2023-01-05T03:35:19;2.50;99.90
42979;DHT22;28616;44.746;19.678;2023-01-05T03:38:25;2.50;99.90
42979;DHT22;28616;44.746;19.678;2023-01-05T03:40:55;2.50;99.90
42979;DHT22;28616;44.746;19.678;2023-01-05T03:43:21;2.50;99.90
42979;DHT22;28616;44.746;19.678;2023-01-05T03:45:56;2.50;99.90
42979;DHT22;28616;44.746;19.678;2023-01-05T03:48:24;2.50;99.90
42979;DHT22;28616;44.746;19.678;2023-01-05T03:50:50;2.50;99.90
42979;DHT22;28616;44.746;19.678;2023-01-05T03:53:16;2.50;99.90
42979;DHT22;28616;44.746;19.678;2023-01-05T03:55:41;2.50;99.90
42979;DHT22;28616;44.746;19.678;2023-01-05T03:58:07;2.40;99.90
42979;DHT22;28616;44.746;19.678;2023-01-05T04:00:33;2.40;99.90
42979;DHT22;28616;44.746;19.678;2023-01-05T04:02:59;2.50;99.90
42979;DHT22;28616;44.746;19.678;2023-01-05T04:05:25;2.50;99.90
42979;DHT22;28616;44.746;19.678;2023-01-05T04:07:51;2.50;99.90
42979;DHT22;28616;44.746;19.678;2023-01-05T04:10:17;2.40;99.90
42979;DHT22;28616;44.746;19.678;2023-01-05T04:12:42;2.40;99.90
42979;DHT22;28616;44.746;19.678;2023-01-05T04:15:10;2.40;99.90
42979;DHT22;28616;44.746;19.678;2023-01-05T04:17:36;2.40;99.90
42979;DHT22;28616;44.746;19.678;2023-01-05T04:20:02;2.30;99.90
42979;DHT22;28616;44.746;19.678;2023-01-05T04:22:31;2.30;99.90
42979;DHT22;28616;44.746;19.678;2023-01-05T04:24:56;2.30;99.90
42979;DHT22;28616;44.746;19.678;2023-01-05T04:27:22;2.30;99.90
42979;DHT22;28616;44.746;19.678;2023-01-05T04:29:48;2.30;99.90
42979;DHT22;28616;44.746;19.678;2023-01-05T04:32:13;2.30;99.90
42979;DHT22;28616;44.746;19.678;2023-01-05T04:34:39;2.20;99.90
42979;DHT22;28616;44.746;19.678;2023-01-05T04:37:05;2.20;99.90
42979;DHT22;28616;44.746;19.678;2023-01-05T04:39:30;2.10;99.90
42979;DHT22;28616;44.746;19.678;2023-01-05T04:41:56;2.10;99.90
42979;DHT22;28616;44.746;19.678;2023-01-05T04:44:22;2.20;99.90
42979;DHT22;28616;44.746;19.678;2023-01-05T04:46:47;2.20;99.90
42979;DHT22;28616;44.746;19.678;2023-01-05T04:49:13;2.20;99.90
42979;DHT22;28616;44.746;19.678;2023-01-05T04:51:39;2.30;99.90
42979;DHT22;28616;44.746;19.678;2023-01-05T04:54:05;2.30;99.90
42979;DHT22;28616;44.746;19.678;2023-01-05T04:56:31;2.20;99.90
42979;DHT22;28616;44.746;19.678;2023-01-05T04:58:57;2.20;99.90
42979;DHT22;28616;44.746;19.678;2023-01-05T05:01:22;2.10;99.90
42979;DHT22;28616;44.746;19.678;2023-01-05T05:03:48;2.00;99.90
42979;DHT22;28616;44.746;19.678;2023-01-05T05:06:14;2.00;99.90
42979;DHT22;28616;44.746;19.678;2023-01-05T05:08:41;1.90;99.90
42979;DHT22;28616;44.746;19.678;2023-01-05T05:11:07;1.90;99.90
42979;DHT22;28616;44.746;19.678;2023-01-05T05:13:33;1.90;99.90
42979;DHT22;28616;44.746;19.678;2023-01-05T05:15:59;1.90;99.90
42979;DHT22;28616;44.746;19.678;2023-01-05T05:18:24;1.90;99.90
42979;DHT22;28616;44.746;19.678;2023-01-05T05:20:51;1.90;99.90
42979;DHT22;28616;44.746;19.678;2023-01-05T05:23:17;1.90;99.90
42979;DHT22;28616;44.746;19.678;2023-01-05T05:25:43;1.90;99.90
42979;DHT22;28616;44.746;19.678;2023-01-05T05:28:09;1.90;99.90
42979;DHT22;28616;44.746;19.678;2023-01-05T05:30:37;1.80;99.90
42979;DHT22;28616;44.746;19.678;2023-01-05T05:33:02;1.80;99.90
42979;DHT22;28616;44.746;19.678;2023-01-05T05:35:28;1.80;99.90
42979;DHT22;28616;44.746;19.678;2023-01-05T05:37:54;1.80;99.90
42979;DHT22;28616;44.746;19.678;2023-01-05T05:40:19;1.80;99.90
42979;DHT22;28616;44.746;19.678;2023-01-05T05:42:45;1.80;99.90
42979;DHT22;28616;44.746;19.678;2023-01-05T05:45:11;1.80;99.90
42979;DHT22;28616;44.746;19.678;2023-01-05T05:47:36;1.80;99.90
42979;DHT22;28616;44.746;19.678;2023-01-05T05:50:02;1.90;99.90
42979;DHT22;28616;44.746;19.678;2023-01-05T05:52:29;2.00;99.90
42979;DHT22;28616;44.746;19.678;2023-01-05T05:54:54;2.00;99.90
42979;DHT22;28616;44.746;19.678;2023-01-05T05:57:20;2.00;99.90
42979;DHT22;28616;44.746;19.678;2023-01-05T05:59:46;2.10;99.90
42979;DHT22;28616;44.746;19.678;2023-01-05T06:02:11;2.10;99.90
42979;DHT22;28616;44.746;19.678;2023-01-05T06:04:37;2.10;99.90
42979;DHT22;28616;44.746;19.678;2023-01-05T06:07:03;2.20;99.90
42979;DHT22;28616;44.746;19.678;2023-01-05T06:09:28;2.30;99.90
42979;DHT22;28616;44.746;19.678;2023-01-05T06:11:54;2.30;99.90
42979;DHT22;28616;44.746;19.678;2023-01-05T06:14:20;2.30;99.90
42979;DHT22;28616;44.746;19.678;2023-01-05T06:16:45;2.30;99.90
42979;DHT22;28616;44.746;19.678;2023-01-05T06:19:11;2.30;99.90
42979;DHT22;28616;44.746;19.678;2023-01-05T06:21:37;2.30;99.90
42979;DHT22;28616;44.746;19.678;2023-01-05T06:24:03;2.30;99.90
42979;DHT22;28616;44.746;19.678;2023-01-05T06:26:28;2.30;99.90
42979;DHT22;28616;44.746;19.678;2023-01-05T06:28:54;2.30;99.90
42979;DHT22;28616;44.746;19.678;2023-01-05T06:31:20;2.30;99.90
42979;DHT22;28616;44.746;19.678;2023-01-05T06:33:45;2.40;99.90
42979;DHT22;28616;44.746;19.678;2023-01-05T06:36:11;2.40;99.90
42979;DHT22;28616;44.746;19.678;2023-01-05T06:38:37;2.50;99.90
42979;DHT22;28616;44.746;19.678;2023-01-05T06:41:03;2.40;99.90
42979;DHT22;28616;44.746;19.678;2023-01-05T06:43:29;2.50;99.90
42979;DHT22;28616;44.746;19.678;2023-01-05T06:45:54;2.60;99.90
42979;DHT22;28616;44.746;19.678;2023-01-05T06:48:20;2.70;99.90
42979;DHT22;28616;44.746;19.678;2023-01-05T06:50:46;2.80;99.90
42979;DHT22;28616;44.746;19.678;2023-01-05T06:53:11;2.90;99.90
42979;DHT22;28616;44.746;19.678;2023-01-05T06:55:37;2.90;99.90
42979;DHT22;28616;44.746;19.678;2023-01-05T06:58:03;3.00;99.90
42979;DHT22;28616;44.746;19.678;2023-01-05T07:00:29;3.00;99.90
42979;DHT22;28616;44.746;19.678;2023-01-05T07:02:54;3.10;99.90
42979;DHT22;28616;44.746;19.678;2023-01-05T07:05:20;3.10;99.90
42979;DHT22;28616;44.746;19.678;2023-01-05T07:07:47;3.30;99.90
42979;DHT22;28616;44.746;19.678;2023-01-05T07:10:13;3.30;99.90
42979;DHT22;28616;44.746;19.678;2023-01-05T07:12:39;3.30;99.90
42979;DHT22;28616;44.746;19.678;2023-01-05T07:15:05;3.40;99.90
42979;DHT22;28616;44.746;19.678;2023-01-05T07:17:31;3.50;99.90
42979;DHT22;28616;44.746;19.678;2023-01-05T07:19:57;3.50;99.90
42979;DHT22;28616;44.746;19.678;2023-01-05T07:22:23;3.50;99.90
42979;DHT22;28616;44.746;19.678;2023-01-05T07:24:48;3.70;99.90
42979;DHT22;28616;44.746;19.678;2023-01-05T07:27:14;3.70;99.90
42979;DHT22;28616;44.746;19.678;2023-01-05T07:29:40;3.80;99.90
42979;DHT22;28616;44.746;19.678;2023-01-05T07:32:05;3.70;99.90
42979;DHT22;28616;44.746;19.678;2023-01-05T07:34:31;3.70;99.90
42979;DHT22;28616;44.746;19.678;2023-01-05T07:36:57;3.80;99.90
42979;DHT22;28616;44.746;19.678;2023-01-05T07:39:23;3.80;99.90
42979;DHT22;28616;44.746;19.678;2023-01-05T07:41:48;3.80;99.90
42979;DHT22;28616;44.746;19.678;2023-01-05T07:44:14;3.90;99.90
42979;DHT22;28616;44.746;19.678;2023-01-05T07:46:40;3.90;99.90
42979;DHT22;28616;44.746;19.678;2023-01-05T07:49:06;4.00;99.90
42979;DHT22;28616;44.746;19.678;2023-01-05T07:51:32;3.90;99.90
42979;DHT22;28616;44.746;19.678;2023-01-05T07:53:57;3.90;99.90
42979;DHT22;28616;44.746;19.678;2023-01-05T07:56:23;3.90;99.90
42979;DHT22;28616;44.746;19.678;2023-01-05T07:58:49;3.80;99.90
42979;DHT22;28616;44.746;19.678;2023-01-05T08:01:15;3.70;99.90
42979;DHT22;28616;44.746;19.678;2023-01-05T08:03:43;3.70;99.90
42979;DHT22;28616;44.746;19.678;2023-01-05T08:06:13;3.70;99.90
42979;DHT22;28616;44.746;19.678;2023-01-05T08:08:40;3.60;99.90
42979;DHT22;28616;44.746;19.678;2023-01-05T08:11:11;3.70;99.90
42979;DHT22;28616;44.746;19.678;2023-01-05T08:13:40;3.70;99.90
42979;DHT22;28616;44.746;19.678;2023-01-05T08:16:24;3.60;99.90
42979;DHT22;28616;44.746;19.678;2023-01-05T08:18:50;3.60;99.90
42979;DHT22;28616;44.746;19.678;2023-01-05T08:21:16;3.60;99.90
42979;DHT22;28616;44.746;19.678;2023-01-05T08:23:42;3.70;99.90
42979;DHT22;28616;44.746;19.678;2023-01-05T08:26:13;3.90;99.90
42979;DHT22;28616;44.746;19.678;2023-01-05T08:28:40;4.00;99.90
42979;DHT22;28616;44.746;19.678;2023-01-05T08:31:10;4.20;99.90
42979;DHT22;28616;44.746;19.678;2023-01-05T08:33:36;4.40;99.90
42979;DHT22;28616;44.746;19.678;2023-01-05T08:36:07;4.60;99.90
42979;DHT22;28616;44.746;19.678;2023-01-05T08:38:33;4.70;99.90
42979;DHT22;28616;44.746;19.678;2023-01-05T08:40:58;4.90;99.90
42979;DHT22;28616;44.746;19.678;2023-01-05T08:43:25;5.10;99.90
42979;DHT22;28616;44.746;19.678;2023-01-05T08:45:50;5.20;99.90
42979;DHT22;28616;44.746;19.678;2023-01-05T08:48:16;5.30;99.90
42979;DHT22;28616;44.746;19.678;2023-01-05T08:50:42;5.60;99.90
42979;DHT22;28616;44.746;19.678;2023-01-05T08:53:08;5.80;99.90
42979;DHT22;28616;44.746;19.678;2023-01-05T08:55:34;6.00;99.90
42979;DHT22;28616;44.746;19.678;2023-01-05T08:58:00;6.20;99.90
42979;DHT22;28616;44.746;19.678;2023-01-05T09:00:25;6.30;99.90
42979;DHT22;28616;44.746;19.678;2023-01-05T09:02:51;6.50;99.90
42979;DHT22;28616;44.746;19.678;2023-01-05T09:05:17;6.80;99.90
42979;DHT22;28616;44.746;19.678;2023-01-05T09:07:42;7.00;99.90
42979;DHT22;28616;44.746;19.678;2023-01-05T09:10:09;7.20;99.90
42979;DHT22;28616;44.746;19.678;2023-01-05T09:12:36;7.30;99.90
42979;DHT22;28616;44.746;19.678;2023-01-05T09:15:03;7.60;99.90
42979;DHT22;28616;44.746;19.678;2023-01-05T09:17:30;7.60;99.90
42979;DHT22;28616;44.746;19.678;2023-01-05T09:19:56;7.70;99.90
42979;DHT22;28616;44.746;19.678;2023-01-05T09:22:21;7.80;99.90
42979;DHT22;28616;44.746;19.678;2023-01-05T09:24:47;7.90;99.90
42979;DHT22;28616;44.746;19.678;2023-01-05T09:27:14;8.00;99.90
42979;DHT22;28616;44.746;19.678;2023-01-05T09:29:39;8.00;99.90
42979;DHT22;28616;44.746;19.678;2023-01-05T09:32:05;8.00;99.90
42979;DHT22;28616;44.746;19.678;2023-01-05T09:34:32;8.10;99.90
42979;DHT22;28616;44.746;19.678;2023-01-05T09:36:58;8.20;99.90
42979;DHT22;28616;44.746;19.678;2023-01-05T09:39:24;8.40;99.90
42979;DHT22;28616;44.746;19.678;2023-01-05T09:41:59;8.80;99.90
42979;DHT22;28616;44.746;19.678;2023-01-05T09:44:34;9.20;99.90
42979;DHT22;28616;44.746;19.678;2023-01-05T09:49:59;9.30;99.90
42979;DHT22;28616;44.746;19.678;2023-01-05T09:52:25;9.00;99.90
42979;DHT22;28616;44.746;19.678;2023-01-05T09:54:51;9.30;99.90
42979;DHT22;28616;44.746;19.678;2023-01-05T09:57:25;9.50;99.90
42979;DHT22;28616;44.746;19.678;2023-01-05T10:00:01;9.70;99.90
42979;DHT22;28616;44.746;19.678;2023-01-05T10:02:48;10.20;99.90
42979;DHT22;28616;44.746;19.678;2023-01-05T10:05:15;10.60;99.90
42979;DHT22;28616;44.746;19.678;2023-01-05T10:07:44;11.10;99.90
42979;DHT22;28616;44.746;19.678;2023-01-05T10:10:44;11.40;99.90
42979;DHT22;28616;44.746;19.678;2023-01-05T10:13:38;11.40;99.90
42979;DHT22;28616;44.746;19.678;2023-01-05T10:16:05;11.50;99.90
42979;DHT22;28616;44.746;19.678;2023-01-05T10:18:31;11.40;99.90
42979;DHT22;28616;44.746;19.678;2023-01-05T10:24:35;11.60;99.90
42979;DHT22;28616;44.746;19.678;2023-01-05T10:27:39;11.80;99.70
42979;DHT22;28616;44.746;19.678;2023-01-05T10:35:30;13.50;93.70
42979;DHT22;28616;44.746;19.678;2023-01-05T10:38:09;13.90;92.40
42979;DHT22;28616;44.746;19.678;2023-01-05T10:44:26;15.20;84.00
42979;DHT22;28616;44.746;19.678;2023-01-05T10:46:47;15.30;81.10
42979;DHT22;28616;44.746;19.678;2023-01-05T10:49:19;15.80;79.90
42979;DHT22;28616;44.746;19.678;2023-01-05T10:51:50;15.70;78.10
42979;DHT22;28616;44.746;19.678;2023-01-05T10:54:42;16.20;77.20
42979;DHT22;28616;44.746;19.678;2023-01-05T11:02:32;16.50;73.40
42979;DHT22;28616;44.746;19.678;2023-01-05T11:08:03;16.60;70.40
42979;DHT22;28616;44.746;19.678;2023-01-05T11:10:31;15.90;71.80
42979;DHT22;28616;44.746;19.678;2023-01-05T11:13:02;15.30;74.30
42979;DHT22;28616;44.746;19.678;2023-01-05T11:15:34;15.00;73.80
42979;DHT22;28616;44.746;19.678;2023-01-05T11:18:04;14.40;75.40
42979;DHT22;28616;44.746;19.678;2023-01-05T11:20:31;13.90;78.30
42979;DHT22;28616;44.746;19.678;2023-01-05T11:22:56;13.80;79.40
42979;DHT22;28616;44.746;19.678;2023-01-05T11:25:32;14.00;81.30
42979;DHT22;28616;44.746;19.678;2023-01-05T11:30:31;14.60;80.50
42979;DHT22;28616;44.746;19.678;2023-01-05T11:32:58;14.80;79.90
42979;DHT22;28616;44.746;19.678;2023-01-05T11:35:38;14.00;79.50
42979;DHT22;28616;44.746;19.678;2023-01-05T11:38:04;13.80;80.90
42979;DHT22;28616;44.746;19.678;2023-01-05T11:40:32;14.50;82.20
42979;DHT22;28616;44.746;19.678;2023-01-05T11:42:59;14.90;81.40
42979;DHT22;28616;44.746;19.678;2023-01-05T11:45:34;14.90;80.00
42979;DHT22;28616;44.746;19.678;2023-01-05T11:48:05;14.90;80.40
42979;DHT22;28616;44.746;19.678;2023-01-05T11:50:44;15.00;80.40
42979;DHT22;28616;44.746;19.678;2023-01-05T11:56:02;14.50;81.10
42979;DHT22;28616;44.746;19.678;2023-01-05T11:58:42;14.10;80.70
42979;DHT22;28616;44.746;19.678;2023-01-05T12:04:33;13.90;81.90
42979;DHT22;28616;44.746;19.678;2023-01-05T12:09:43;13.20;84.80
42979;DHT22;28616;44.746;19.678;2023-01-05T12:12:34;12.90;86.70
42979;DHT22;28616;44.746;19.678;2023-01-05T12:20:39;12.30;91.00
42979;DHT22;28616;44.746;19.678;2023-01-05T12:23:22;12.30;91.60
42979;DHT22;28616;44.746;19.678;2023-01-05T12:26:15;12.20;92.50
42979;DHT22;28616;44.746;19.678;2023-01-05T12:34:18;12.10;93.50
42979;DHT22;28616;44.746;19.678;2023-01-05T12:42:10;12.00;95.50
42979;DHT22;28616;44.746;19.678;2023-01-05T12:50:24;11.90;98.10
42979;DHT22;28616;44.746;19.678;2023-01-05T12:53:07;11.90;99.40
42979;DHT22;28616;44.746;19.678;2023-01-05T12:55:43;11.80;99.90
42979;DHT22;28616;44.746;19.678;2023-01-05T13:00:44;11.70;99.90
42979;DHT22;28616;44.746;19.678;2023-01-05T13:03:20;11.60;99.90
42979;DHT22;28616;44.746;19.678;2023-01-05T13:06:03;11.60;99.90
42979;DHT22;28616;44.746;19.678;2023-01-05T13:08:37;11.60;99.90
42979;DHT22;28616;44.746;19.678;2023-01-05T13:13:47;11.50;99.90
42979;DHT22;28616;44.746;19.678;2023-01-05T13:16:23;11.50;99.90
42979;DHT22;28616;44.746;19.678;2023-01-05T13:22:02;11.50;99.90
42979;DHT22;28616;44.746;19.678;2023-01-05T13:24:39;11.40;99.90
42979;DHT22;28616;44.746;19.678;2023-01-05T13:27:08;11.40;99.90
42979;DHT22;28616;44.746;19.678;2023-01-05T13:29:39;11.40;99.90
42979;DHT22;28616;44.746;19.678;2023-01-05T13:32:23;11.30;99.90
42979;DHT22;28616;44.746;19.678;2023-01-05T13:40:18;11.30;99.90
42979;DHT22;28616;44.746;19.678;2023-01-05T13:53:54;11.20;99.90
42979;DHT22;28616;44.746;19.678;2023-01-05T13:56:25;11.20;99.90
42979;DHT22;28616;44.746;19.678;2023-01-05T13:59:07;11.20;99.90
42979;DHT22;28616;44.746;19.678;2023-01-05T14:01:41;11.20;99.90
42979;DHT22;28616;44.746;19.678;2023-01-05T14:04:22;11.20;99.90
42979;DHT22;28616;44.746;19.678;2023-01-05T14:06:53;11.10;99.90
42979;DHT22;28616;44.746;19.678;2023-01-05T14:09:36;11.10;99.90
42979;DHT22;28616;44.746;19.678;2023-01-05T14:26:02;10.90;99.90
42979;DHT22;28616;44.746;19.678;2023-01-05T14:44:50;10.70;99.90
42979;DHT22;28616;44.746;19.678;2023-01-05T14:47:16;10.60;99.90
42979;DHT22;28616;44.746;19.678;2023-01-05T14:49:52;10.60;99.90
42979;DHT22;28616;44.746;19.678;2023-01-05T14:58:46;10.50;99.90
42979;DHT22;28616;44.746;19.678;2023-01-05T15:01:22;10.40;99.90
42979;DHT22;28616;44.746;19.678;2023-01-05T15:04:14;10.40;99.90
42979;DHT22;28616;44.746;19.678;2023-01-05T15:09:31;10.30;99.90
42979;DHT22;28616;44.746;19.678;2023-01-05T15:20:48;10.10;99.90
42979;DHT22;28616;44.746;19.678;2023-01-05T15:37:38;9.70;99.90
42979;DHT22;28616;44.746;19.678;2023-01-05T15:40:25;9.70;99.90
42979;DHT22;28616;44.746;19.678;2023-01-05T15:42:55;9.60;99.90
42979;DHT22;28616;44.746;19.678;2023-01-05T15:45:25;9.60;99.90
42979;DHT22;28616;44.746;19.678;2023-01-05T15:47:52;9.50;99.90
42979;DHT22;28616;44.746;19.678;2023-01-05T15:50:28;9.50;99.90
42979;DHT22;28616;44.746;19.678;2023-01-05T15:52:57;9.40;99.90
42979;DHT22;28616;44.746;19.678;2023-01-05T15:55:23;9.40;99.90
42979;DHT22;28616;44.746;19.678;2023-01-05T15:57:57;9.30;99.90
42979;DHT22;28616;44.746;19.678;2023-01-05T16:02:54;9.20;99.90
42979;DHT22;28616;44.746;19.678;2023-01-05T16:05:25;9.20;99.90
42979;DHT22;28616;44.746;19.678;2023-01-05T16:08:00;9.10;99.90
42979;DHT22;28616;44.746;19.678;2023-01-05T16:13:12;9.00;99.90
42979;DHT22;28616;44.746;19.678;2023-01-05T16:15:39;8.90;99.90
42979;DHT22;28616;44.746;19.678;2023-01-05T16:18:06;8.90;99.90
42979;DHT22;28616;44.746;19.678;2023-01-05T16:20:38;8.80;99.90
42979;DHT22;28616;44.746;19.678;2023-01-05T16:25:49;8.70;99.90
42979;DHT22;28616;44.746;19.678;2023-01-05T16:28:17;8.70;99.90
42979;DHT22;28616;44.746;19.678;2023-01-05T16:30:45;8.70;99.90
42979;DHT22;28616;44.746;19.678;2023-01-05T16:33:28;8.60;99.90
42979;DHT22;28616;44.746;19.678;2023-01-05T16:38:37;8.40;99.90
42979;DHT22;28616;44.746;19.678;2023-01-05T16:41:09;8.40;99.90
42979;DHT22;28616;44.746;19.678;2023-01-05T16:43:45;8.40;99.90
42979;DHT22;28616;44.746;19.678;2023-01-05T16:53:52;8.10;99.90
42979;DHT22;28616;44.746;19.678;2023-01-05T16:56:20;8.10;99.90
42979;DHT22;28616;44.746;19.678;2023-01-05T16:58:46;8.00;99.90
42979;DHT22;28616;44.746;19.678;2023-01-05T17:03:38;8.00;99.90
42979;DHT22;28616;44.746;19.678;2023-01-05T17:06:05;8.00;99.90
42979;DHT22;28616;44.746;19.678;2023-01-05T17:08:32;8.00;99.90
42979;DHT22;28616;44.746;19.678;2023-01-05T17:11:07;8.00;99.90
42979;DHT22;28616;44.746;19.678;2023-01-05T17:13:44;8.00;99.90
42979;DHT22;28616;44.746;19.678;2023-01-05T17:16:12;8.00;99.90
42979;DHT22;28616;44.746;19.678;2023-01-05T17:18:39;8.00;99.90
42979;DHT22;28616;44.746;19.678;2023-01-05T17:21:05;7.90;99.90
42979;DHT22;28616;44.746;19.678;2023-01-05T17:23:40;7.90;99.90
42979;DHT22;28616;44.746;19.678;2023-01-05T17:26:54;7.90;99.90
42979;DHT22;28616;44.746;19.678;2023-01-05T17:29:02;7.80;99.90
42979;DHT22;28616;44.746;19.678;2023-01-05T17:31:28;7.70;99.90
42979;DHT22;28616;44.746;19.678;2023-01-05T17:33:54;7.70;99.90
42979;DHT22;28616;44.746;19.678;2023-01-05T17:36:23;7.70;99.90
42979;DHT22;28616;44.746;19.678;2023-01-05T17:38:49;7.70;99.90
42979;DHT22;28616;44.746;19.678;2023-01-05T17:41:15;7.70;99.90
42979;DHT22;28616;44.746;19.678;2023-01-05T17:43:40;7.60;99.90
42979;DHT22;28616;44.746;19.678;2023-01-05T17:46:08;7.70;99.90
42979;DHT22;28616;44.746;19.678;2023-01-05T17:48:38;7.70;99.90
42979;DHT22;28616;44.746;19.678;2023-01-05T17:51:04;7.70;99.90
42979;DHT22;28616;44.746;19.678;2023-01-05T17:53:29;7.70;99.90
42979;DHT22;28616;44.746;19.678;2023-01-05T17:55:55;7.70;99.90
42979;DHT22;28616;44.746;19.678;2023-01-05T17:58:21;7.70;99.90
42979;DHT22;28616;44.746;19.678;2023-01-05T18:00:46;7.70;99.90
42979;DHT22;28616;44.746;19.678;2023-01-05T18:03:14;7.70;99.90
42979;DHT22;28616;44.746;19.678;2023-01-05T18:05:45;7.70;99.90
42979;DHT22;28616;44.746;19.678;2023-01-05T18:08:10;7.80;99.90
42979;DHT22;28616;44.746;19.678;2023-01-05T18:10:38;7.80;99.90
42979;DHT22;28616;44.746;19.678;2023-01-05T18:13:05;7.80;99.90
42979;DHT22;28616;44.746;19.678;2023-01-05T18:15:31;7.80;99.90
42979;DHT22;28616;44.746;19.678;2023-01-05T18:17:58;7.70;99.90
42979;DHT22;28616;44.746;19.678;2023-01-05T18:20:25;7.70;99.90
42979;DHT22;28616;44.746;19.678;2023-01-05T18:22:51;7.70;99.90
42979;DHT22;28616;44.746;19.678;2023-01-05T18:25:17;7.60;99.90
42979;DHT22;28616;44.746;19.678;2023-01-05T18:27:43;7.70;99.90
42979;DHT22;28616;44.746;19.678;2023-01-05T18:30:10;7.70;99.90
42979;DHT22;28616;44.746;19.678;2023-01-05T18:32:36;7.70;99.90
42979;DHT22;28616;44.746;19.678;2023-01-05T18:35:02;7.70;99.90
42979;DHT22;28616;44.746;19.678;2023-01-05T18:37:29;7.70;99.90
42979;DHT22;28616;44.746;19.678;2023-01-05T18:39:55;7.80;99.90
42979;DHT22;28616;44.746;19.678;2023-01-05T18:42:20;7.80;99.90
42979;DHT22;28616;44.746;19.678;2023-01-05T18:44:46;7.90;99.90
42979;DHT22;28616;44.746;19.678;2023-01-05T18:47:12;8.00;99.90
42979;DHT22;28616;44.746;19.678;2023-01-05T18:49:38;8.00;99.90
42979;DHT22;28616;44.746;19.678;2023-01-05T18:52:03;8.00;99.90